createdAt,value
2018-07-08T00:00:34.322Z,2.13
2018-07-08T00:03:07.467Z,2.33
2018-07-08T00:05:40.531Z,1.83
2018-07-08T00:08:13.912Z,2.53
2018-07-08T00:10:53.851Z,1.90
2018-07-08T00:13:26.925Z,2.10
2018-07-08T00:15:59.808Z,2.67
2018-07-08T00:18:32.297Z,2.43
2018-07-08T00:21:06.860Z,2.17
2018-07-08T00:23:39.627Z,2.50
2018-07-08T00:26:12.859Z,2.73
2018-07-08T00:28:45.581Z,2.87
2018-07-08T00:31:18.625Z,2.23
2018-07-08T00:33:51.788Z,2.37
2018-07-08T00:36:19.792Z,3.30
2018-07-08T00:38:47.783Z,2.30
2018-07-08T00:41:15.801Z,1.60
2018-07-08T00:43:43.782Z,2.43
2018-07-08T00:46:11.786Z,1.83
2018-07-08T00:48:39.765Z,1.53
2018-07-08T00:51:07.746Z,2.13
2018-07-08T00:53:35.732Z,1.50
2018-07-08T00:56:03.726Z,1.47
2018-07-08T00:58:31.703Z,3.03
2018-07-08T01:00:59.736Z,1.73
2018-07-08T01:03:27.714Z,2.00
2018-07-08T01:05:55.700Z,2.50
2018-07-08T01:08:23.724Z,2.57
2018-07-08T01:10:51.698Z,2.63
2018-07-08T01:13:19.678Z,3.27
2018-07-08T01:15:47.670Z,1.87
2018-07-08T01:18:15.669Z,1.90
2018-07-08T01:20:43.722Z,2.70
2018-07-08T01:23:11.716Z,2.37
2018-07-08T01:25:45.253Z,2.23
2018-07-08T01:28:13.286Z,1.60
2018-07-08T01:30:41.326Z,2.23
2018-07-08T01:33:09.284Z,1.87
2018-07-08T01:35:37.314Z,3.67
2018-07-08T01:38:05.285Z,1.50
2018-07-08T01:40:33.345Z,2.00
2018-07-08T01:43:01.350Z,1.83
2018-07-08T01:45:29.405Z,2.13
2018-07-08T01:47:57.399Z,2.93
2018-07-08T01:50:25.406Z,1.87
2018-07-08T01:52:53.410Z,3.73
2018-07-08T01:55:21.433Z,1.80
2018-07-08T01:57:49.413Z,2.63
2018-07-08T02:00:17.423Z,1.60
2018-07-08T02:02:45.444Z,1.60
2018-07-08T02:05:13.457Z,1.77
2018-07-08T02:07:41.451Z,1.70
2018-07-08T02:10:09.435Z,1.80
2018-07-08T02:12:37.445Z,3.70
2018-07-08T02:15:05.570Z,2.20
2018-07-08T02:17:33.579Z,2.03
2018-07-08T02:20:01.596Z,2.00
2018-07-08T02:22:29.647Z,1.57
2018-07-08T02:24:57.626Z,1.70
2018-07-08T02:27:25.631Z,2.77
2018-07-08T02:29:53.596Z,1.77
2018-07-08T02:32:21.626Z,2.00
2018-07-08T02:34:49.727Z,2.30
2018-07-08T02:37:17.741Z,1.93
2018-07-08T02:39:45.759Z,2.00
2018-07-08T02:42:13.793Z,1.63
2018-07-08T02:44:42.359Z,2.10
2018-07-08T02:47:10.363Z,2.10
2018-07-08T02:49:38.399Z,1.77
2018-07-08T02:52:06.374Z,1.60
2018-07-08T02:54:34.382Z,2.03
2018-07-08T02:57:02.362Z,1.50
2018-07-08T02:59:30.378Z,2.10
2018-07-08T03:01:58.363Z,1.40
2018-07-08T03:04:26.345Z,1.83
2018-07-08T03:06:54.686Z,1.87
2018-07-08T03:09:22.678Z,2.40
2018-07-08T03:11:50.764Z,1.60
2018-07-08T03:14:18.770Z,1.33
2018-07-08T03:16:46.768Z,1.50
2018-07-08T03:19:14.791Z,1.97
2018-07-08T03:21:42.818Z,3.23
2018-07-08T03:24:10.888Z,1.60
2018-07-08T03:26:38.967Z,1.50
2018-07-08T03:29:06.986Z,2.47
2018-07-08T03:31:34.982Z,1.63
2018-07-08T03:34:02.962Z,2.07
2018-07-08T03:36:30.954Z,1.37
2018-07-08T03:38:58.932Z,2.07
2018-07-08T03:41:26.905Z,2.17
2018-07-08T03:43:54.886Z,1.90
2018-07-08T03:46:22.895Z,1.20
2018-07-08T03:48:50.879Z,1.43
2018-07-08T03:51:18.859Z,1.50
2018-07-08T03:53:46.838Z,1.37
2018-07-08T03:56:14.845Z,1.50
2018-07-08T03:58:42.847Z,1.80
2018-07-08T04:01:10.940Z,1.33
2018-07-08T04:03:38.979Z,1.30
2018-07-08T04:06:06.982Z,1.50
2018-07-08T04:08:35.017Z,1.50
2018-07-08T04:11:03.001Z,1.57
2018-07-08T04:13:30.979Z,1.53
2018-07-08T04:15:58.990Z,1.40
2018-07-08T04:18:26.978Z,1.53
2018-07-08T04:20:54.986Z,1.43
2018-07-08T04:23:22.967Z,1.50
2018-07-08T04:25:50.955Z,1.57
2018-07-08T04:28:18.959Z,1.50
2018-07-08T04:30:46.950Z,1.40
2018-07-08T04:33:14.949Z,1.30
2018-07-08T04:35:42.936Z,1.57
2018-07-08T04:38:11.053Z,1.50
2018-07-08T04:40:43.595Z,1.43
2018-07-08T04:43:11.723Z,1.93
2018-07-08T04:45:39.712Z,1.40
2018-07-08T04:48:07.902Z,1.53
2018-07-08T04:50:36.074Z,1.50
2018-07-08T04:53:04.193Z,7.37
2018-07-08T04:55:32.367Z,1.20
2018-07-08T04:58:00.510Z,2.10
2018-07-08T05:00:28.708Z,3.87
2018-07-08T05:02:56.890Z,2.83
2018-07-08T05:05:25.015Z,1.50
2018-07-08T05:07:53.087Z,2.00
2018-07-08T05:10:21.180Z,1.60
2018-07-08T05:15:22.712Z,1.30
2018-07-08T05:17:50.825Z,1.50
2018-07-08T05:20:20.096Z,2.53
2018-07-08T05:22:48.174Z,1.33
2018-07-08T05:25:16.226Z,1.93
2018-07-08T05:27:44.342Z,2.33
2018-07-08T05:30:12.489Z,4.33
2018-07-08T05:32:40.608Z,3.10
2018-07-08T05:35:08.786Z,1.50
2018-07-08T05:37:36.950Z,2.30
2018-07-08T05:40:05.074Z,2.53
2018-07-08T05:42:33.178Z,1.50
2018-07-08T05:45:01.338Z,2.00
2018-07-08T05:47:29.422Z,1.90
2018-07-08T05:49:57.494Z,3.17
2018-07-08T05:52:25.623Z,2.13
2018-07-08T05:54:53.827Z,1.13
2018-07-08T05:57:21.905Z,4.23
2018-07-08T05:59:49.967Z,1.63
2018-07-08T06:02:18.158Z,2.03
2018-07-08T06:04:46.251Z,1.50
2018-07-08T06:07:14.320Z,2.43
2018-07-08T06:09:42.486Z,2.93
2018-07-08T06:12:10.559Z,3.13
2018-07-08T06:14:38.672Z,1.73
2018-07-08T06:17:06.782Z,3.60
2018-07-08T06:19:34.831Z,2.27
2018-07-08T06:22:02.905Z,4.07
2018-07-08T06:27:14.458Z,3.87
2018-07-08T06:29:42.664Z,2.27
2018-07-08T06:32:10.798Z,4.93
2018-07-08T06:34:39.024Z,1.30
2018-07-08T06:37:07.204Z,3.73
2018-07-08T06:39:35.269Z,2.20
2018-07-08T06:42:03.547Z,3.17
2018-07-08T06:44:31.604Z,3.63
2018-07-08T06:49:27.847Z,2.20
2018-07-08T06:51:55.992Z,2.60
2018-07-08T06:54:24.050Z,4.80
2018-07-08T06:56:52.107Z,2.60
2018-07-08T06:59:20.205Z,2.97
2018-07-08T07:01:48.272Z,3.27
2018-07-08T07:04:16.334Z,3.93
2018-07-08T07:06:44.365Z,4.13
2018-07-08T07:09:12.338Z,4.47
2018-07-08T07:11:40.592Z,3.70
2018-07-08T07:14:08.590Z,3.80
2018-07-08T07:16:37.034Z,4.23
2018-07-08T07:19:05.242Z,4.87
2018-07-08T07:21:33.278Z,5.30
2018-07-08T07:24:01.260Z,4.47
2018-07-08T07:26:29.269Z,3.63
2018-07-08T07:28:57.332Z,4.50
2018-07-08T07:31:25.329Z,5.43
2018-07-08T07:33:53.447Z,3.27
2018-07-08T07:36:21.523Z,5.07
2018-07-08T07:38:49.527Z,4.40
2018-07-08T07:41:17.519Z,4.97
2018-07-08T07:43:45.499Z,5.07
2018-07-08T07:46:13.488Z,3.10
2018-07-08T07:48:41.484Z,4.67
2018-07-08T07:51:09.477Z,3.27
2018-07-08T07:53:37.559Z,5.50
2018-07-08T07:56:05.631Z,6.90
2018-07-08T07:58:33.617Z,5.43
2018-07-08T08:01:01.646Z,4.43
2018-07-08T08:03:29.685Z,5.90
2018-07-08T08:05:57.681Z,4.20
2018-07-08T08:08:25.694Z,7.83
2018-07-08T08:10:53.675Z,12.03
2018-07-08T08:13:21.662Z,12.80
2018-07-08T08:15:49.650Z,8.97
2018-07-08T08:18:17.651Z,6.20
2018-07-08T08:20:45.690Z,14.10
2018-07-08T08:23:13.676Z,20.97
2018-07-08T08:25:41.714Z,16.00
2018-07-08T08:28:09.726Z,12.50
2018-07-08T08:30:37.718Z,9.70
2018-07-08T08:33:05.710Z,8.30
2018-07-08T08:35:33.788Z,7.40
2018-07-08T08:38:01.963Z,12.13
2018-07-08T08:40:30.599Z,2.87
2018-07-08T08:42:58.822Z,4.93
2018-07-08T08:45:28.323Z,5.07
2018-07-08T08:47:56.338Z,3.93
2018-07-08T08:50:24.386Z,6.33
2018-07-08T08:52:52.536Z,4.50
